createdAt,value
2023-05-10T00:00:49.931Z,15.40
2023-05-10T00:03:17.084Z,15.40
2023-05-10T00:05:44.358Z,15.40
2023-05-10T00:08:12.463Z,15.40
2023-05-10T00:10:40.056Z,15.40
2023-05-10T00:13:07.210Z,15.40
2023-05-10T00:15:36.573Z,15.40
2023-05-10T00:18:07.462Z,15.40
2023-05-10T00:20:35.074Z,15.40
2023-05-10T00:23:02.523Z,15.40
2023-05-10T00:25:29.674Z,15.30
2023-05-10T00:27:58.452Z,15.30
2023-05-10T00:30:25.659Z,15.30
2023-05-10T00:32:54.143Z,15.30
2023-05-10T00:35:21.385Z,15.40
2023-05-10T00:37:48.546Z,15.30
2023-05-10T00:40:17.265Z,15.30
2023-05-10T00:42:44.848Z,15.40
2023-05-10T00:45:13.046Z,15.30
2023-05-10T00:47:40.913Z,15.30
2023-05-10T00:50:08.684Z,15.20
2023-05-10T00:52:36.628Z,15.20
2023-05-10T00:55:05.414Z,15.30
2023-05-10T00:57:33.009Z,15.20
2023-05-10T01:00:00.858Z,15.20
2023-05-10T01:02:28.551Z,15.20
2023-05-10T01:04:56.428Z,15.20
2023-05-10T01:07:23.712Z,15.20
2023-05-10T01:09:50.823Z,15.20
2023-05-10T01:12:18.313Z,15.20
2023-05-10T01:14:45.912Z,15.20
2023-05-10T01:17:13.939Z,15.30
2023-05-10T01:19:41.443Z,15.30
2023-05-10T01:22:12.734Z,15.40
2023-05-10T01:24:59.934Z,15.40
2023-05-10T01:27:36.690Z,15.40
2023-05-10T01:30:15.677Z,15.40
2023-05-10T01:32:57.955Z,15.30
2023-05-10T01:35:40.337Z,15.30
2023-05-10T01:38:18.612Z,15.30
2023-05-10T01:40:55.230Z,15.40
2023-05-10T01:43:26.891Z,15.40
2023-05-10T01:46:02.716Z,15.40
2023-05-10T01:48:30.544Z,15.40
2023-05-10T01:50:57.956Z,15.40
2023-05-10T01:53:25.548Z,15.40
2023-05-10T01:55:54.073Z,15.30
2023-05-10T01:58:29.818Z,15.30
2023-05-10T02:01:00.735Z,15.20
2023-05-10T02:03:29.689Z,15.20
2023-05-10T02:06:00.629Z,15.20
2023-05-10T02:08:28.208Z,15.20
2023-05-10T02:10:57.155Z,15.20
2023-05-10T02:13:27.804Z,15.10
2023-05-10T02:15:56.171Z,15.00
2023-05-10T02:18:24.267Z,15.00
2023-05-10T02:20:52.660Z,15.00
2023-05-10T02:23:20.397Z,15.00
2023-05-10T02:25:50.137Z,15.00
2023-05-10T02:28:18.868Z,15.00
2023-05-10T02:30:48.912Z,14.90
2023-05-10T02:33:16.967Z,14.90
2023-05-10T02:35:44.134Z,14.80
2023-05-10T02:38:13.232Z,14.70
2023-05-10T02:40:42.632Z,14.60
2023-05-10T02:43:13.556Z,14.50
2023-05-10T02:45:42.093Z,14.40
2023-05-10T02:48:09.575Z,14.40
2023-05-10T02:50:37.806Z,14.40
2023-05-10T02:53:28.254Z,14.40
2023-05-10T02:56:01.752Z,14.40
2023-05-10T02:58:29.367Z,14.40
2023-05-10T03:00:56.566Z,14.40
2023-05-10T03:03:23.839Z,14.40
2023-05-10T03:05:51.073Z,14.50
2023-05-10T03:08:18.581Z,14.60
2023-05-10T03:10:55.503Z,14.60
2023-05-10T03:13:46.268Z,14.50
2023-05-10T03:16:18.507Z,14.50
2023-05-10T03:18:49.905Z,14.50
2023-05-10T03:21:20.384Z,14.50
2023-05-10T03:23:50.498Z,14.50
2023-05-10T03:26:26.975Z,14.50
2023-05-10T03:28:54.710Z,14.60
2023-05-10T03:31:22.728Z,14.60
2023-05-10T03:33:53.488Z,14.60
2023-05-10T03:36:22.465Z,14.60
2023-05-10T03:38:50.219Z,14.60
2023-05-10T03:41:17.946Z,14.60
2023-05-10T03:43:45.282Z,14.60
2023-05-10T03:46:12.586Z,14.70
2023-05-10T03:48:41.531Z,14.70
2023-05-10T03:51:08.642Z,14.70
2023-05-10T03:53:35.663Z,14.80
2023-05-10T03:56:03.414Z,14.80
2023-05-10T03:58:31.430Z,14.90
2023-05-10T04:00:58.674Z,14.90
2023-05-10T04:03:27.251Z,14.90
2023-05-10T04:06:02.710Z,14.90
2023-05-10T04:08:32.896Z,14.90
2023-05-10T04:11:08.172Z,14.90
2023-05-10T04:13:35.288Z,14.90
2023-05-10T04:16:03.777Z,14.90
2023-05-10T04:18:32.624Z,14.90
2023-05-10T04:21:00.547Z,14.90
2023-05-10T04:23:28.343Z,14.90
2023-05-10T04:26:01.041Z,14.90
2023-05-10T04:28:29.006Z,15.00
2023-05-10T04:31:05.243Z,15.00
2023-05-10T04:33:35.679Z,15.00
2023-05-10T04:36:07.163Z,15.00
2023-05-10T04:38:34.614Z,15.00
2023-05-10T04:41:05.803Z,15.00
2023-05-10T04:43:36.263Z,15.00
2023-05-10T04:46:03.928Z,15.00
2023-05-10T04:48:32.375Z,15.10
2023-05-10T04:51:00.015Z,15.10
2023-05-10T04:53:27.041Z,15.10
2023-05-10T04:55:54.308Z,15.10
2023-05-10T04:58:22.005Z,15.10
2023-05-10T05:00:49.335Z,15.20
2023-05-10T05:03:16.580Z,15.20
2023-05-10T05:05:44.597Z,15.20
2023-05-10T05:08:11.626Z,15.20
2023-05-10T05:10:38.741Z,15.20
2023-05-10T05:13:06.328Z,15.20
2023-05-10T05:15:34.948Z,15.20
2023-05-10T05:18:02.090Z,15.20
2023-05-10T05:20:29.372Z,15.20
2023-05-10T05:22:56.575Z,15.30
2023-05-10T05:25:24.021Z,15.30
2023-05-10T05:27:51.447Z,15.30
2023-05-10T05:30:19.639Z,15.30
2023-05-10T05:32:48.397Z,15.30
2023-05-10T05:35:19.032Z,15.30
2023-05-10T05:37:46.828Z,15.40
2023-05-10T05:40:14.867Z,15.40
2023-05-10T05:42:42.347Z,15.40
2023-05-10T05:45:10.050Z,15.40
2023-05-10T05:47:38.896Z,15.40
2023-05-10T05:50:06.440Z,15.40
2023-05-10T05:52:33.931Z,15.40
2023-05-10T05:55:03.967Z,15.40
2023-05-10T05:57:33.157Z,15.40
2023-05-10T06:00:00.819Z,15.40
2023-05-10T06:02:28.316Z,15.50
2023-05-10T06:04:55.826Z,15.50
2023-05-10T06:07:23.305Z,15.50
2023-05-10T06:09:50.387Z,15.50
2023-05-10T06:12:17.494Z,15.50
2023-05-10T06:14:45.972Z,15.50
2023-05-10T06:17:13.093Z,15.50
2023-05-10T06:19:41.173Z,15.60
2023-05-10T06:22:08.283Z,15.60
2023-05-10T06:24:35.475Z,15.60
2023-05-10T06:27:03.382Z,15.70
2023-05-10T06:29:30.533Z,15.60
2023-05-10T06:31:58.348Z,15.60
2023-05-10T06:34:28.066Z,15.60
2023-05-10T06:36:55.740Z,15.40
2023-05-10T06:39:23.271Z,15.40
2023-05-10T06:41:50.813Z,15.30
2023-05-10T06:44:18.572Z,15.30
2023-05-10T06:46:47.021Z,15.20
2023-05-10T06:49:14.357Z,15.20
2023-05-10T06:51:41.596Z,15.20
2023-05-10T06:54:08.876Z,15.20
2023-05-10T06:56:37.146Z,15.10
2023-05-10T06:59:04.229Z,15.10
2023-05-10T07:01:31.350Z,15.00
2023-05-10T07:04:00.424Z,15.00
2023-05-10T07:06:33.268Z,15.00
2023-05-10T07:09:02.083Z,15.00
2023-05-10T07:11:32.327Z,15.00
2023-05-10T07:13:59.564Z,15.00
2023-05-10T07:16:28.429Z,14.90
2023-05-10T07:18:55.853Z,14.90
2023-05-10T07:21:25.725Z,14.80
2023-05-10T07:23:53.340Z,14.90
2023-05-10T07:26:21.074Z,14.80
2023-05-10T07:28:48.615Z,14.80
2023-05-10T07:31:15.810Z,14.80
2023-05-10T07:33:43.224Z,14.80
2023-05-10T07:36:11.953Z,14.90
2023-05-10T07:38:41.644Z,15.00
2023-05-10T07:41:08.699Z,15.10
2023-05-10T07:43:35.974Z,15.10
2023-05-10T07:46:06.864Z,15.20
2023-05-10T07:48:33.989Z,15.30
2023-05-10T07:51:01.695Z,15.30
2023-05-10T07:53:29.720Z,15.40
2023-05-10T07:56:05.749Z,15.40
2023-05-10T07:58:33.217Z,15.50
2023-05-10T08:01:01.252Z,15.50
2023-05-10T08:03:28.331Z,15.50
2023-05-10T08:05:55.926Z,15.50
2023-05-10T08:08:24.134Z,15.60
2023-05-10T08:10:51.439Z,15.60
2023-05-10T08:13:18.608Z,15.60
2023-05-10T08:15:45.759Z,15.60
2023-05-10T08:18:13.051Z,15.60
2023-05-10T08:20:41.099Z,15.70
2023-05-10T08:23:08.693Z,15.70
2023-05-10T08:25:36.523Z,15.80
2023-05-10T08:28:03.789Z,15.90
2023-05-10T08:30:31.828Z,16.00
2023-05-10T08:32:58.897Z,16.10
2023-05-10T08:35:26.132Z,16.10
2023-05-10T08:37:53.278Z,16.10
2023-05-10T08:40:20.979Z,16.20
2023-05-10T08:42:55.631Z,16.10
2023-05-10T08:45:24.527Z,16.10
2023-05-10T08:47:53.820Z,16.00
2023-05-10T08:50:23.144Z,16.00
2023-05-10T08:52:54.441Z,16.00
2023-05-10T08:55:21.863Z,16.00
2023-05-10T08:57:49.132Z,15.90
2023-05-10T09:00:16.839Z,15.90
2023-05-10T09:02:44.791Z,15.90
2023-05-10T09:05:12.263Z,15.90
2023-05-10T09:07:39.477Z,15.90
2023-05-10T09:10:08.038Z,15.90
2023-05-10T09:12:36.425Z,15.80
2023-05-10T09:15:05.020Z,15.80
2023-05-10T09:17:34.926Z,15.80
2023-05-10T09:20:07.088Z,15.80
2023-05-10T09:22:38.103Z,15.80
2023-05-10T09:25:15.147Z,15.80
2023-05-10T09:27:46.312Z,15.80
2023-05-10T09:30:17.589Z,15.80
2023-05-10T09:32:45.712Z,15.70
2023-05-10T09:35:16.354Z,15.80
2023-05-10T09:37:45.480Z,15.80
2023-05-10T09:40:14.791Z,15.80
2023-05-10T09:42:43.548Z,15.80
2023-05-10T09:45:10.997Z,15.80
2023-05-10T09:47:39.894Z,15.90
2023-05-10T09:50:07.749Z,15.90
2023-05-10T09:52:48.878Z,16.00
2023-05-10T09:55:17.863Z,16.00
2023-05-10T09:57:46.176Z,16.10
2023-05-10T10:00:19.675Z,16.10
2023-05-10T10:02:57.012Z,16.20
2023-05-10T10:05:31.129Z,16.20
2023-05-10T10:07:59.246Z,16.30
2023-05-10T10:10:27.068Z,16.40
2023-05-10T10:12:55.143Z,16.40
2023-05-10T10:15:23.500Z,16.50
2023-05-10T10:17:51.992Z,16.50
2023-05-10T10:20:20.125Z,16.50
2023-05-10T10:22:48.432Z,16.50
2023-05-10T10:25:17.209Z,16.50
2023-05-10T10:27:55.107Z,16.50
2023-05-10T10:30:39.462Z,16.50
2023-05-10T10:33:28.911Z,16.50
2023-05-10T10:35:59.340Z,16.60
2023-05-10T10:38:27.243Z,16.60
2023-05-10T10:41:04.978Z,16.50
2023-05-10T10:43:32.207Z,16.50
2023-05-10T10:46:15.896Z,16.50
2023-05-10T10:48:48.792Z,16.50
2023-05-10T10:51:18.151Z,16.50
2023-05-10T10:53:46.078Z,16.50
2023-05-10T10:56:16.611Z,16.50
2023-05-10T10:58:51.482Z,16.40
2023-05-10T11:01:19.703Z,16.40
2023-05-10T11:04:02.230Z,16.40
2023-05-10T11:06:41.336Z,16.40
2023-05-10T11:09:13.033Z,16.50
2023-05-10T11:11:54.151Z,16.50
2023-05-10T11:14:22.774Z,16.50
2023-05-10T11:16:51.698Z,16.50
2023-05-10T11:19:20.626Z,16.50
2023-05-10T11:21:50.980Z,16.50
2023-05-10T11:24:21.996Z,16.50
2023-05-10T11:26:51.296Z,16.50
2023-05-10T11:29:21.825Z,16.50
2023-05-10T11:31:49.933Z,16.50
2023-05-10T11:34:27.873Z,16.50
2023-05-10T11:36:56.206Z,16.50
2023-05-10T11:39:27.910Z,16.60
2023-05-10T11:41:55.113Z,16.60
2023-05-10T11:44:22.131Z,16.70
2023-05-10T11:46:51.685Z,16.70
2023-05-10T11:49:21.844Z,16.80
2023-05-10T11:51:50.566Z,16.80
2023-05-10T11:54:20.319Z,16.80
2023-05-10T11:56:47.385Z,16.80
2023-05-10T11:59:15.716Z,16.80
2023-05-10T12:01:42.927Z,16.80
2023-05-10T12:04:13.709Z,16.80
2023-05-10T12:06:41.880Z,16.80
2023-05-10T12:09:09.904Z,16.80
2023-05-10T12:11:44.352Z,16.70
2023-05-10T12:14:12.050Z,16.70
2023-05-10T12:16:39.661Z,16.70
2023-05-10T12:19:06.937Z,16.70
2023-05-10T12:21:34.875Z,16.70
2023-05-10T12:24:06.632Z,16.60
2023-05-10T12:26:33.967Z,16.60
2023-05-10T12:29:17.494Z,16.60
2023-05-10T12:31:56.937Z,16.60
2023-05-10T12:34:41.158Z,16.60
2023-05-10T12:37:08.349Z,16.60
2023-05-10T12:39:41.604Z,16.60
2023-05-10T12:42:08.985Z,16.60
2023-05-10T12:44:36.424Z,16.60
2023-05-10T12:47:03.881Z,16.60
2023-05-10T12:49:31.890Z,16.60
2023-05-10T12:51:59.024Z,16.60
2023-05-10T12:54:26.458Z,16.60
2023-05-10T12:56:53.536Z,16.60
2023-05-10T12:59:21.094Z,16.60
2023-05-10T13:01:48.193Z,16.60
2023-05-10T13:04:15.318Z,16.60
2023-05-10T13:06:45.275Z,16.60
2023-05-10T13:09:12.947Z,16.70
2023-05-10T13:11:40.182Z,16.70
2023-05-10T13:14:11.872Z,16.70
2023-05-10T13:16:39.619Z,16.80
2023-05-10T13:19:06.749Z,16.80
2023-05-10T13:21:34.253Z,16.90
2023-05-10T13:24:06.538Z,16.90
2023-05-10T13:26:37.632Z,16.90
2023-05-10T13:29:05.919Z,17.00
2023-05-10T13:31:37.152Z,17.00
2023-05-10T13:34:04.797Z,17.00
2023-05-10T13:36:33.828Z,17.00
2023-05-10T13:39:04.501Z,17.00
2023-05-10T13:41:32.300Z,17.00
2023-05-10T13:43:59.545Z,17.00
2023-05-10T13:46:27.145Z,17.00
2023-05-10T13:48:55.503Z,17.00
2023-05-10T13:51:22.981Z,17.00
2023-05-10T13:53:50.776Z,17.00
2023-05-10T13:56:17.921Z,17.00
2023-05-10T13:58:46.641Z,17.00
2023-05-10T14:01:15.835Z,17.00
2023-05-10T14:03:43.591Z,17.00
2023-05-10T14:06:10.755Z,17.00
2023-05-10T14:08:40.812Z,17.00
2023-05-10T14:11:08.135Z,17.00
2023-05-10T14:13:38.249Z,17.10
2023-05-10T14:16:05.803Z,17.10
2023-05-10T14:18:34.158Z,17.10
2023-05-10T14:21:01.480Z,17.10
2023-05-10T14:23:30.120Z,17.10
2023-05-10T14:25:57.493Z,17.10
2023-05-10T14:28:26.319Z,17.10
2023-05-10T14:30:53.525Z,17.10
2023-05-10T14:33:21.850Z,17.10
2023-05-10T14:35:49.664Z,17.10
2023-05-10T14:38:17.082Z,17.10
2023-05-10T14:40:44.840Z,17.10
2023-05-10T14:43:12.665Z,17.00
2023-05-10T14:45:39.942Z,17.00
2023-05-10T14:48:07.858Z,17.00
2023-05-10T14:50:38.705Z,17.00
2023-05-10T14:53:06.472Z,17.00
2023-05-10T14:55:34.161Z,17.00
2023-05-10T14:58:01.887Z,17.00
2023-05-10T15:00:29.645Z,17.00
2023-05-10T15:02:58.096Z,17.00
2023-05-10T15:05:26.190Z,17.00
2023-05-10T15:07:53.936Z,17.00
2023-05-10T15:10:21.205Z,17.00
2023-05-10T15:12:48.786Z,16.90
2023-05-10T15:15:16.891Z,16.90
2023-05-10T15:17:45.691Z,16.90
2023-05-10T15:20:13.173Z,16.90
2023-05-10T15:22:42.123Z,17.00
2023-05-10T15:25:10.316Z,17.00
2023-05-10T15:27:38.643Z,17.00
2023-05-10T15:30:09.410Z,17.00
2023-05-10T15:32:36.752Z,17.00
2023-05-10T15:35:03.962Z,17.00
2023-05-10T15:37:31.108Z,17.00
2023-05-10T15:40:04.833Z,17.10
2023-05-10T15:42:35.963Z,17.10
2023-05-10T15:45:03.346Z,17.10
2023-05-10T15:47:31.136Z,17.10
2023-05-10T15:49:58.972Z,17.10
2023-05-10T15:52:26.123Z,17.00
2023-05-10T15:54:53.519Z,17.00
2023-05-10T15:57:20.535Z,17.00
2023-05-10T15:59:47.893Z,17.00
2023-05-10T16:02:16.621Z,17.00
2023-05-10T16:04:45.102Z,17.00
2023-05-10T16:07:12.274Z,17.00
2023-05-10T16:09:42.636Z,17.00
2023-05-10T16:12:10.133Z,17.00
2023-05-10T16:14:38.069Z,17.00
2023-05-10T16:17:06.353Z,17.00
2023-05-10T16:19:36.814Z,16.90
2023-05-10T16:22:04.037Z,16.90
2023-05-10T16:24:31.353Z,16.90
2023-05-10T16:26:59.694Z,16.90
2023-05-10T16:29:27.328Z,16.90
2023-05-10T16:31:54.642Z,16.90
2023-05-10T16:34:25.060Z,16.90
2023-05-10T16:36:52.417Z,16.90
2023-05-10T16:39:21.998Z,16.90
2023-05-10T16:41:49.243Z,17.00
2023-05-10T16:44:18.959Z,16.90
2023-05-10T16:46:47.924Z,16.90
2023-05-10T16:49:15.637Z,16.90
2023-05-10T16:51:43.568Z,16.90
2023-05-10T16:54:11.254Z,16.90
2023-05-10T16:56:40.033Z,16.90
2023-05-10T16:59:12.596Z,16.90
2023-05-10T17:01:40.424Z,16.90
2023-05-10T17:04:08.462Z,16.90
2023-05-10T17:06:36.706Z,16.90
2023-05-10T17:09:06.103Z,16.90
2023-05-10T17:11:33.894Z,16.90
2023-05-10T17:14:03.869Z,16.90
2023-05-10T17:16:33.451Z,16.90
2023-05-10T17:19:01.439Z,16.90
2023-05-10T17:21:30.575Z,16.90
2023-05-10T17:23:58.080Z,16.90
2023-05-10T17:26:25.182Z,16.90
2023-05-10T17:28:53.461Z,16.90
2023-05-10T17:31:20.811Z,16.90
2023-05-10T17:33:50.312Z,16.90
2023-05-10T17:36:18.716Z,16.90
2023-05-10T17:38:45.941Z,16.90
2023-05-10T17:41:14.822Z,16.90
2023-05-10T17:43:44.489Z,16.90
2023-05-10T17:46:13.336Z,16.90
2023-05-10T17:48:41.181Z,16.90
2023-05-10T17:51:08.808Z,16.90
2023-05-10T17:53:37.459Z,16.90
2023-05-10T17:56:05.317Z,16.90
2023-05-10T17:58:34.774Z,16.90
2023-05-10T18:01:05.070Z,16.90
2023-05-10T18:03:33.114Z,16.90
2023-05-10T18:06:00.977Z,16.90
2023-05-10T18:08:29.114Z,16.90
2023-05-10T18:10:56.845Z,16.90
2023-05-10T18:13:26.905Z,16.90
2023-05-10T18:15:55.223Z,16.80
2023-05-10T18:18:22.376Z,16.80
2023-05-10T18:20:53.496Z,16.80
2023-05-10T18:23:21.515Z,16.80
2023-05-10T18:25:48.847Z,16.80
2023-05-10T18:28:16.237Z,16.80
2023-05-10T18:30:44.161Z,16.70
2023-05-10T18:33:12.437Z,16.70
2023-05-10T18:35:40.533Z,16.70
2023-05-10T18:38:11.044Z,16.70
2023-05-10T18:40:38.985Z,16.60
2023-05-10T18:43:06.716Z,16.60
2023-05-10T18:45:34.084Z,16.60
2023-05-10T18:48:01.276Z,16.60
2023-05-10T18:50:29.004Z,16.60
2023-05-10T18:52:57.294Z,16.60
2023-05-10T18:55:27.354Z,16.60
2023-05-10T18:57:56.228Z,16.60
2023-05-10T19:00:26.722Z,16.60
2023-05-10T19:02:54.322Z,16.60
2023-05-10T19:05:21.827Z,16.60
2023-05-10T19:07:50.825Z,16.60
2023-05-10T19:10:18.076Z,16.50
2023-05-10T19:12:45.570Z,16.50
2023-05-10T19:15:12.713Z,16.50
2023-05-10T19:17:40.355Z,16.50
2023-05-10T19:20:09.109Z,16.50
2023-05-10T19:22:54.057Z,16.50
2023-05-10T19:25:22.255Z,16.50
2023-05-10T19:27:50.160Z,16.50
2023-05-10T19:30:18.052Z,16.50
2023-05-10T19:32:46.005Z,16.50
2023-05-10T19:35:15.646Z,16.50
2023-05-10T19:37:48.084Z,16.50
2023-05-10T19:40:19.159Z,16.40
2023-05-10T19:42:46.348Z,16.40
2023-05-10T19:45:16.718Z,16.40
2023-05-10T19:47:45.718Z,16.40
2023-05-10T19:50:13.481Z,16.40
2023-05-10T19:52:41.754Z,16.40
2023-05-10T19:55:09.649Z,16.40
2023-05-10T19:57:38.709Z,16.40
2023-05-10T20:00:08.418Z,16.40
2023-05-10T20:02:36.168Z,16.40
2023-05-10T20:05:04.302Z,16.30
2023-05-10T20:07:32.025Z,16.30
2023-05-10T20:09:59.605Z,16.30
2023-05-10T20:12:27.141Z,16.20
2023-05-10T20:14:55.324Z,16.20
2023-05-10T20:17:22.769Z,16.20
2023-05-10T20:19:52.157Z,16.20
2023-05-10T20:22:20.727Z,16.20
2023-05-10T20:24:48.628Z,16.20
2023-05-10T20:27:15.963Z,16.20
2023-05-10T20:29:44.434Z,16.10
2023-05-10T20:32:11.697Z,16.10
2023-05-10T20:34:39.022Z,16.10
2023-05-10T20:37:06.102Z,16.10
2023-05-10T20:39:33.430Z,16.10
2023-05-10T20:42:00.523Z,16.10
2023-05-10T20:44:30.265Z,16.10
2023-05-10T20:46:57.557Z,16.10
2023-05-10T20:49:24.951Z,16.10
2023-05-10T20:51:52.173Z,16.10
2023-05-10T20:54:19.243Z,16.00
2023-05-10T20:56:46.458Z,16.00
2023-05-10T20:59:14.115Z,16.00
2023-05-10T21:01:41.140Z,16.00
2023-05-10T21:04:08.267Z,16.00
2023-05-10T21:06:35.440Z,16.00
2023-05-10T21:09:02.622Z,16.00
2023-05-10T21:11:30.111Z,15.90
2023-05-10T21:13:57.455Z,15.90
2023-05-10T21:16:24.886Z,15.90
2023-05-10T21:18:52.154Z,15.90
2023-05-10T21:21:19.237Z,15.90
2023-05-10T21:23:47.032Z,15.90
2023-05-10T21:26:14.793Z,15.90
2023-05-10T21:28:43.073Z,15.90
2023-05-10T21:31:10.372Z,15.90
2023-05-10T21:33:37.692Z,15.90
2023-05-10T21:36:05.131Z,15.90
2023-05-10T21:38:36.017Z,15.80
2023-05-10T21:41:07.240Z,15.80
2023-05-10T21:43:34.549Z,15.80
2023-05-10T21:46:02.503Z,15.80
2023-05-10T21:48:29.910Z,15.80
2023-05-10T21:50:57.727Z,15.80
2023-05-10T21:53:24.829Z,15.80
2023-05-10T21:55:52.341Z,15.70
2023-05-10T21:58:25.130Z,15.70
2023-05-10T22:00:53.984Z,15.70
2023-05-10T22:03:21.678Z,15.80
2023-05-10T22:05:49.040Z,15.80
2023-05-10T22:08:16.640Z,15.80
2023-05-10T22:10:44.126Z,15.80
2023-05-10T22:13:14.290Z,15.80
2023-05-10T22:15:42.849Z,15.80
2023-05-10T22:18:10.372Z,15.80
2023-05-10T22:20:37.888Z,15.80
2023-05-10T22:23:05.184Z,15.80
2023-05-10T22:25:32.629Z,15.80
2023-05-10T22:28:01.413Z,15.80
2023-05-10T22:30:29.509Z,15.80
2023-05-10T22:32:59.098Z,15.80
2023-05-10T22:35:26.866Z,15.70
2023-05-10T22:37:54.690Z,15.70
2023-05-10T22:40:21.813Z,15.70
2023-05-10T22:42:49.057Z,15.70
2023-05-10T22:45:16.103Z,15.80
2023-05-10T22:47:43.465Z,15.80
2023-05-10T22:50:11.247Z,15.80
2023-05-10T22:52:41.513Z,15.80
2023-05-10T22:55:08.942Z,15.80
2023-05-10T22:57:37.592Z,15.80
2023-05-10T23:00:09.151Z,15.80
2023-05-10T23:02:36.401Z,15.80
2023-05-10T23:05:08.237Z,15.80
2023-05-10T23:07:38.766Z,15.70
2023-05-10T23:10:09.226Z,15.70
2023-05-10T23:12:36.702Z,15.70
2023-05-10T23:15:06.405Z,15.70
2023-05-10T23:17:33.797Z,15.70
2023-05-10T23:20:00.996Z,15.70
2023-05-10T23:22:28.481Z,15.60
2023-05-10T23:24:57.495Z,15.60
2023-05-10T23:27:26.680Z,15.60
2023-05-10T23:30:00.138Z,15.60
2023-05-10T23:32:27.409Z,15.60
2023-05-10T23:34:54.866Z,15.60
2023-05-10T23:37:22.076Z,15.60
2023-05-10T23:39:49.574Z,15.60
2023-05-10T23:42:23.982Z,15.60
2023-05-10T23:44:52.961Z,15.60
2023-05-10T23:47:20.045Z,15.60
2023-05-10T23:49:48.736Z,15.60
2023-05-10T23:54:58.710Z,15.60
2023-05-10T23:57:27.693Z,15.60
2023-05-10T23:59:55.197Z,15.60
